Pagrindinis puslapis
METAR-TAF:

METAR-TAF

Oro uostai :

Belgaum, Indija

platuma: 15-51-33N, ilguma: 74-37-03E, Aukštis: 758 m

Dabartinis oras

Ataskaita buvo paskelbta 42 minutes, ne 11:30 UTC
Vėjas 6 kt iš Rytų
Temperatūra 27°C
Drėgmė 58%
Slėgis 1014 hPa
Matomumas: 8000 m
Išsisklaidę debesys ne aukštis 1200 ft
Išsisklaidę debesys ne aukštis 1800 ft

METAR: VOBM 151130Z 09006KT 8000 SCT012 SCT018 27/18 Q1014

Laikas: 17:42 (12:12 UTC)

Prognozė

Ataskaita buvo paskelbta 4 valandos ir 12 minutes, ne 08:00 UTC
Prognozė galioja nuo 15 metu 09 UTC su 15 metu 18 UTC
Vėjas 10 kt iš Rytų/Pietryčių
Matomumas: 6000 m
Mažai debesys ne aukštis 1200 ft
Išsisklaidę debesys ne aukštis 2000 ft

TAF: VOBM 150800Z 1509/1518 11010KT 6000 FEW012 SCT020

Orai ataskaitas ir orų prognozės (METAR, TAF).

turimą stotys yra geltonos ir raudonos taškus žemėlapyje.

Perkelti pele per norėdami pamatyti stoties vardą.

Tada spustelėkite, norėdami matyti oro stebėjimo ir prognozės.

Norėdami pakeisti žemėlapį: spustelėkite ant žalios mygtukų su juodo kryžiaus žemyn,; žalią mygtuką su brūkšneliu, jei norite nutolinti; arba žalių rodyklių gretimoms žemėlapius.


METAR-TAF: